Time;durP1;ratioP1;P1;durP2;ratioP2;P2;SDS_P1;SDS_P2;PMS_P1;PMS_P2;Temp;Humidity;BMP_temperature;BMP_pressure;BME280_temperature;BME280_humidity;BME280_pressure;Samples;Min_cycle;Max_cycle;Signal;HPM_P1;HPM_P2
2023/09/11 00:00:35;;;;;;;23.97;20.30;;;21.20;99.90;;;;;;6071267;23;20381;-93
2023/09/11 00:03:00;;;;;;;26.23;20.55;;;21.20;99.90;;;;;;6069561;23;20876;-93
2023/09/11 00:05:26;;;;;;;24.15;20.55;;;21.20;99.90;;;;;;6071203;23;20368;-94
2023/09/11 00:07:51;;;;;;;23.47;20.10;;;21.60;99.90;;;;;;6068813;23;20459;-94
2023/09/11 00:10:17;;;;;;;26.63;20.40;;;21.20;99.90;;;;;;6070846;23;20372;-94
2023/09/11 00:12:43;;;;;;;23.57;20.80;;;21.20;99.90;;;;;;6070040;23;20480;-93
2023/09/11 00:15:09;;;;;;;25.92;20.77;;;21.20;99.90;;;;;;6070209;23;20400;-93
2023/09/11 00:17:35;;;;;;;24.80;20.87;;;21.10;99.90;;;;;;6071204;23;20443;-94
2023/09/11 00:20:06;;;;;;;25.13;21.75;;;21.10;99.90;;;;;;6069288;23;21075;-93
2023/09/11 00:22:32;;;;;;;23.42;19.67;;;21.10;99.90;;;;;;6071239;23;20376;-93
2023/09/11 00:24:57;;;;;;;26.10;19.45;;;21.10;99.90;;;;;;6069079;23;20388;-93
2023/09/11 00:27:23;;;;;;;23.30;20.53;;;21.10;99.90;;;;;;6071180;23;20368;-93
2023/09/11 00:29:48;;;;;;;23.93;21.43;;;21.10;99.90;;;;;;6069927;23;20368;-95
2023/09/11 00:32:14;;;;;;;28.25;22.10;;;21.00;99.90;;;;;;6070816;23;20377;-93
2023/09/11 00:34:40;;;;;;;25.07;20.70;;;21.00;99.90;;;;;;6071128;23;20372;-93
2023/09/11 00:37:05;;;;;;;27.00;21.55;;;21.00;99.90;;;;;;6068995;23;20403;-92
2023/09/11 00:39:31;;;;;;;27.47;22.83;;;21.50;99.90;;;;;;6070972;23;20507;-93
2023/09/11 00:41:56;;;;;;;24.67;21.70;;;21.00;99.90;;;;;;6068794;23;20408;-94
2023/09/11 00:44:22;;;;;;;26.73;21.93;;;21.00;99.90;;;;;;6071287;23;20413;-93
2023/09/11 00:46:48;;;;;;;30.38;22.70;;;21.00;99.90;;;;;;6069267;23;20377;-93
2023/09/11 00:49:15;;;;;;;26.03;22.17;;;20.90;99.90;;;;;;6070709;23;20388;-93
2023/09/11 00:51:40;;;;;;;27.67;22.48;;;21.10;99.90;;;;;;6069937;23;20384;-93
2023/09/11 00:54:06;;;;;;;26.03;22.73;;;20.90;99.90;;;;;;6069799;23;20834;-93
2023/09/11 00:56:32;;;;;;;24.17;20.80;;;21.20;99.90;;;;;;6070655;23;20775;-94
2023/09/11 00:58:58;;;;;;;28.80;21.80;;;20.80;99.90;;;;;;6069210;23;20829;-93
2023/09/11 01:01:24;;;;;;;26.53;22.50;;;21.20;99.90;;;;;;6070542;23;20436;-92
2023/09/11 01:03:50;;;;;;;26.80;21.95;;;20.80;99.90;;;;;;6069015;23;20425;-93
2023/09/11 01:06:16;;;;;;;25.70;22.10;;;21.10;99.90;;;;;;6070675;23;20381;-93
2023/09/11 01:08:42;;;;;;;30.48;22.67;;;20.80;99.90;;;;;;6093104;23;20377;-94
2023/09/11 01:11:08;;;;;;;29.60;22.50;;;20.80;99.90;;;;;;6069910;23;20695;-94
2023/09/11 01:13:34;;;;;;;23.52;21.02;;;21.10;99.90;;;;;;6070219;23;20381;-93
2023/09/11 01:16:12;;;;;;;26.27;22.17;;;20.70;99.90;;;;;;6069092;23;20850;-94
2023/09/11 01:19:05;;;;;;;26.38;22.88;;;20.70;99.90;;;;;;6070969;23;20392;-93
2023/09/11 01:22:00;;;;;;;24.33;21.70;;;20.70;99.90;;;;;;6068991;23;20395;-94
2023/09/11 01:24:47;;;;;;;24.58;22.02;;;20.70;99.90;;;;;;6069645;23;20717;-93
2023/09/11 01:27:37;;;;;;;29.55;22.98;;;20.60;99.90;;;;;;6070849;23;20388;-93
2023/09/11 01:30:04;;;;;;;25.65;22.13;;;20.60;99.90;;;;;;6092875;23;20924;-93
2023/09/11 01:32:31;;;;;;;32.50;23.85;;;20.60;99.90;;;;;;6070750;23;20377;-93
2023/09/11 01:34:56;;;;;;;28.38;21.25;;;20.60;99.90;;;;;;6069914;23;20381;-93
2023/09/11 01:37:22;;;;;;;27.37;22.40;;;20.50;99.90;;;;;;6069497;23;20862;-93
2023/09/11 01:39:48;;;;;;;28.00;22.75;;;20.50;99.90;;;;;;6070037;23;20415;-94
2023/09/11 01:42:19;;;;;;;29.73;22.60;;;20.40;99.90;;;;;;6068137;23;20408;-94
2023/09/11 01:44:47;;;;;;;28.60;22.30;;;20.50;99.90;;;;;;6071173;23;20364;-94
2023/09/11 01:47:16;;;;;;;25.92;23.10;;;20.40;99.90;;;;;;6068435;23;20763;-94
2023/09/11 01:49:44;;;;;;;27.73;23.75;;;20.50;99.90;;;;;;6070487;23;20695;-93
2023/09/11 01:52:11;;;;;;;54.75;24.73;;;20.50;99.90;;;;;;6069615;23;20380;-93
2023/09/11 01:54:37;;;;;;;26.83;23.00;;;20.40;99.90;;;;;;6069684;23;20368;-94
2023/09/11 01:57:06;;;;;;;27.73;23.58;;;20.40;99.90;;;;;;6070197;23;20400;-93
2023/09/11 01:59:32;;;;;;;27.27;22.33;;;20.70;99.90;;;;;;6093187;23;20376;-93
2023/09/11 02:01:58;;;;;;;25.98;22.13;;;20.40;99.90;;;;;;6070520;23;20375;-94
2023/09/11 02:04:23;;;;;;;24.95;20.48;;;20.30;99.90;;;;;;6068550;23;20416;-93
2023/09/11 02:06:49;;;;;;;26.48;21.20;;;20.30;99.90;;;;;;6070785;23;20404;-92
2023/09/11 02:09:16;;;;;;;26.80;20.57;;;20.30;99.90;;;;;;6068405;23;20862;-94
2023/09/11 02:11:41;;;;;;;24.73;21.97;;;20.50;99.90;;;;;;6070077;23;20407;-94
2023/09/11 02:14:07;;;;;;;25.95;23.05;;;20.30;99.90;;;;;;6069807;23;20384;-95
2023/09/11 02:16:33;;;;;;;25.57;22.60;;;20.30;99.90;;;;;;6068792;23;20408;-94
2023/09/11 02:18:58;;;;;;;26.17;23.17;;;20.60;99.90;;;;;;6070300;23;20381;-94
2023/09/11 02:21:24;;;;;;;26.13;22.20;;;20.20;99.90;;;;;;6068772;23;20376;-93
2023/09/11 02:23:50;;;;;;;29.35;24.50;;;20.10;99.90;;;;;;6094866;23;20842;-92
2023/09/11 02:26:15;;;;;;;30.37;22.90;;;20.20;99.90;;;;;;6068189;23;20428;-94
2023/09/11 02:28:41;;;;;;;28.85;22.60;;;20.10;99.90;;;;;;6071308;23;20416;-93
2023/09/11 02:31:07;;;;;;;26.53;22.47;;;20.10;99.90;;;;;;6071301;23;20365;-93
2023/09/11 02:33:33;;;;;;;26.75;21.70;;;20.10;99.90;;;;;;6071337;23;20380;-93
2023/09/11 02:36:02;;;;;;;26.67;21.27;;;20.10;99.90;;;;;;6071887;23;20381;-93
2023/09/11 02:38:28;;;;;;;23.37;20.87;;;20.40;99.90;;;;;;6070503;23;20424;-92
2023/09/11 02:40:54;;;;;;;23.95;21.45;;;20.00;99.90;;;;;;6071938;23;20372;-94
2023/09/11 02:43:20;;;;;;;24.05;21.52;;;19.80;99.90;;;;;;6070146;23;20380;-93
2023/09/11 02:45:45;;;;;;;25.53;22.60;;;19.90;99.90;;;;;;6072329;23;20434;-94
2023/09/11 02:48:11;;;;;;;27.55;21.95;;;20.40;99.90;;;;;;6070442;23;20373;-95
2023/09/11 02:50:40;;;;;;;28.40;22.40;;;20.30;99.90;;;;;;6071924;23;20380;-93
2023/09/11 02:53:09;;;;;;;27.00;22.88;;;20.20;99.90;;;;;;6070686;23;20406;-93
2023/09/11 02:55:38;;;;;;;27.95;21.85;;;20.00;99.90;;;;;;6070793;23;20372;-94
2023/09/11 02:58:05;;;;;;;22.95;20.42;;;19.90;99.90;;;;;;6072000;23;20396;-94
2023/09/11 03:00:33;;;;;;;24.85;19.65;;;19.90;99.90;;;;;;6070217;23;20436;-93
2023/09/11 03:02:59;;;;;;;26.87;22.00;;;19.90;99.90;;;;;;6072029;23;20557;-92
2023/09/11 03:05:24;;;;;;;24.25;21.65;;;19.90;99.90;;;;;;6069507;23;20487;-92
2023/09/11 03:07:50;;;;;;;25.03;20.43;;;19.90;99.90;;;;;;6071819;23;20380;-94
2023/09/11 03:10:16;;;;;;;25.55;20.92;;;19.90;99.90;;;;;;6070609;23;20368;-93
2023/09/11 03:12:41;;;;;;;28.48;21.52;;;19.90;99.90;;;;;;6071184;23;20377;-92
2023/09/11 03:15:08;;;;;;;24.63;21.03;;;19.90;99.90;;;;;;6071701;23;20388;-93
2023/09/11 03:17:33;;;;;;;24.13;20.35;;;19.90;99.90;;;;;;6069858;23;20408;-92
2023/09/11 03:19:59;;;;;;;28.17;21.00;;;20.20;99.90;;;;;;6072328;23;20400;-95
2023/09/11 03:22:24;;;;;;;28.77;21.95;;;19.80;99.90;;;;;;6069581;23;20451;-94
2023/09/11 03:24:50;;;;;;;22.97;19.83;;;19.90;99.90;;;;;;6072007;23;20384;-93
2023/09/11 03:27:16;;;;;;;24.02;21.25;;;20.10;99.90;;;;;;6069959;23;20680;-92
2023/09/11 03:29:42;;;;;;;28.83;21.75;;;19.80;99.90;;;;;;6071171;23;20379;-93
2023/09/11 03:32:07;;;;;;;30.33;21.50;;;19.80;99.90;;;;;;6071125;23;20443;-93
2023/09/11 03:34:33;;;;;;;25.10;20.90;;;19.80;99.90;;;;;;6094273;23;20415;-93
2023/09/11 03:36:59;;;;;;;27.05;20.77;;;19.80;99.90;;;;;;6071596;23;20400;-93
2023/09/11 03:39:24;;;;;;;25.17;21.63;;;20.10;99.90;;;;;;6092889;23;20423;-93
2023/09/11 03:41:50;;;;;;;22.70;20.15;;;19.70;99.90;;;;;;6071717;23;20850;-95
2023/09/11 03:44:16;;;;;;;24.08;19.95;;;19.70;99.90;;;;;;6069296;23;20425;-95
2023/09/11 03:46:42;;;;;;;23.60;20.97;;;19.70;99.90;;;;;;6072021;23;20381;-93
2023/09/11 03:49:08;;;;;;;25.05;21.45;;;19.70;99.90;;;;;;6070362;23;20369;-93
2023/09/11 03:51:33;;;;;;;28.48;22.02;;;20.10;99.90;;;;;;6070770;23;20874;-93
2023/09/11 03:53:59;;;;;;;26.07;21.10;;;19.70;99.90;;;;;;6071416;23;20869;-94
2023/09/11 03:56:25;;;;;;;26.77;20.77;;;19.70;99.90;;;;;;6069529;23;20427;-92
2023/09/11 03:58:51;;;;;;;27.60;21.57;;;19.70;99.90;;;;;;6071661;23;20380;-93
2023/09/11 04:01:16;;;;;;;24.40;21.60;;;20.10;99.90;;;;;;6069178;23;20376;-93
2023/09/11 04:03:42;;;;;;;27.07;21.10;;;19.60;99.90;;;;;;6071650;23;20381;-92
2023/09/11 04:06:08;;;;;;;23.23;20.73;;;19.60;99.90;;;;;;6069803;23;20372;-93
2023/09/11 04:08:34;;;;;;;23.45;20.30;;;19.60;99.90;;;;;;6070623;23;20403;-94
2023/09/11 04:11:03;;;;;;;23.67;20.95;;;19.70;99.90;;;;;;6070538;23;20377;-93
2023/09/11 04:13:28;;;;;;;26.05;21.60;;;19.60;99.90;;;;;;6069559;23;20391;-93
2023/09/11 04:15:54;;;;;;;24.83;21.60;;;19.60;99.90;;;;;;6071768;23;20461;-93
2023/09/11 04:18:20;;;;;;;26.10;21.03;;;19.60;99.90;;;;;;6069267;23;20405;-94
2023/09/11 04:20:46;;;;;;;22.23;19.90;;;19.60;99.90;;;;;;6071447;23;20472;-94
2023/09/11 04:23:11;;;;;;;26.07;22.17;;;19.60;99.90;;;;;;6069182;23;20457;-92
2023/09/11 04:25:37;;;;;;;25.13;20.48;;;19.60;99.90;;;;;;6071276;23;20659;-94
2023/09/11 04:28:03;;;;;;;25.27;21.23;;;19.60;99.90;;;;;;6069655;23;20435;-93
2023/09/11 04:30:29;;;;;;;26.53;21.80;;;19.50;99.90;;;;;;6070691;23;20858;-93
2023/09/11 04:32:55;;;;;;;27.42;22.20;;;19.50;99.90;;;;;;6071217;23;20471;-93
2023/09/11 04:35:23;;;;;;;24.48;21.92;;;19.50;99.90;;;;;;6069235;23;20459;-93
2023/09/11 04:37:49;;;;;;;28.58;23.33;;;19.80;99.90;;;;;;6070612;23;20484;-94
2023/09/11 04:40:14;;;;;;;29.63;22.77;;;19.50;99.90;;;;;;6092461;23;20397;-93
2023/09/11 04:42:43;;;;;;;27.38;21.88;;;19.50;99.90;;;;;;6071444;23;20679;-93
2023/09/11 04:45:09;;;;;;;26.23;22.90;;;19.60;99.90;;;;;;6069368;23;20380;-95
2023/09/11 04:47:35;;;;;;;31.38;22.77;;;19.50;99.90;;;;;;6070733;23;20372;-93
2023/09/11 04:50:01;;;;;;;30.20;24.17;;;19.50;99.90;;;;;;6070540;23;20368;-94
2023/09/11 04:52:26;;;;;;;26.40;23.57;;;19.60;99.90;;;;;;6068988;23;20476;-93
2023/09/11 04:54:52;;;;;;;28.67;23.40;;;19.40;99.90;;;;;;6070924;23;20415;-93
2023/09/11 04:57:19;;;;;;;26.48;21.70;;;19.50;99.90;;;;;;6091940;23;20397;-93
2023/09/11 04:59:45;;;;;;;27.92;23.38;;;19.50;99.90;;;;;;6071290;23;20714;-93
2023/09/11 05:02:11;;;;;;;29.70;24.50;;;19.50;99.90;;;;;;6068538;23;20424;-92
2023/09/11 05:04:38;;;;;;;30.58;24.85;;;19.50;99.90;;;;;;6070184;23;20465;-92
2023/09/11 05:07:04;;;;;;;26.60;23.42;;;19.50;99.90;;;;;;6069624;23;20388;-93
2023/09/11 05:09:33;;;;;;;30.00;23.83;;;19.50;99.90;;;;;;6069697;23;20384;-93
2023/09/11 05:11:59;;;;;;;28.17;21.75;;;19.50;99.90;;;;;;6070450;23;20459;-94
2023/09/11 05:14:25;;;;;;;28.38;24.58;;;19.50;99.90;;;;;;6068502;23;20510;-93
2023/09/11 05:16:51;;;;;;;27.58;21.73;;;19.50;99.90;;;;;;6071116;23;20403;-94
2023/09/11 05:19:16;;;;;;;28.48;23.17;;;19.90;99.90;;;;;;6068616;23;20460;-93
2023/09/11 05:21:42;;;;;;;24.77;21.57;;;19.60;99.90;;;;;;6070290;23;20480;-94
2023/09/11 05:24:08;;;;;;;28.23;23.17;;;19.60;99.90;;;;;;6069088;23;20369;-94
2023/09/11 05:26:34;;;;;;;29.07;23.43;;;19.50;99.90;;;;;;6070945;23;20377;-94
2023/09/11 05:28:59;;;;;;;26.30;23.17;;;19.60;99.90;;;;;;6069960;23;20375;-95
2023/09/11 05:31:25;;;;;;;28.30;24.17;;;20.20;99.90;;;;;;6070381;23;20377;-95
2023/09/11 05:33:51;;;;;;;30.13;22.88;;;19.60;99.90;;;;;;6070315;23;20468;-94
2023/09/11 05:36:17;;;;;;;31.10;23.70;;;19.70;99.90;;;;;;6067522;23;20510;-93
2023/09/11 05:38:50;;;;;;;27.33;21.60;;;19.50;99.90;;;;;;6070627;23;20718;-94
2023/09/11 05:41:20;;;;;;;32.53;24.00;;;19.80;99.90;;;;;;6068485;23;20369;-94
2023/09/11 05:43:46;;;;;;;28.98;23.10;;;19.80;99.90;;;;;;6070816;23;20502;-94
2023/09/11 05:46:11;;;;;;;22.92;20.52;;;19.90;99.90;;;;;;6069253;23;20408;-94
2023/09/11 05:48:37;;;;;;;25.73;22.63;;;20.00;99.90;;;;;;6069308;23;20464;-94
2023/09/11 05:51:03;;;;;;;26.95;22.50;;;20.10;99.90;;;;;;6070578;23;20387;-94
2023/09/11 05:53:28;;;;;;;26.87;21.70;;;20.10;99.90;;;;;;6068887;23;20416;-95
2023/09/11 05:55:55;;;;;;;25.77;20.90;;;20.20;99.90;;;;;;6070796;23;20377;-94
2023/09/11 05:58:21;;;;;;;24.63;21.15;;;20.30;99.90;;;;;;6069676;23;20396;-95
2023/09/11 06:00:47;;;;;;;35.17;19.73;;;20.90;99.90;;;;;;6071074;23;20973;-94
2023/09/11 06:03:15;;;;;;;25.02;20.70;;;20.50;99.90;;;;;;6091163;23;20412;-94
2023/09/11 06:05:41;;;;;;;25.63;21.13;;;20.70;99.90;;;;;;6073248;23;20384;-94
2023/09/11 06:08:07;;;;;;;25.85;20.98;;;20.80;99.90;;;;;;6071716;23;20373;-93
2023/09/11 06:10:33;;;;;;;24.07;20.07;;;21.40;99.90;;;;;;6070769;23;20459;-94
2023/09/11 06:13:00;;;;;;;25.33;19.85;;;21.00;99.90;;;;;;6072609;23;20409;-94
2023/09/11 06:15:25;;;;;;;26.95;20.83;;;21.10;99.90;;;;;;6070259;23;20527;-94
2023/09/11 06:17:54;;;;;;;25.13;20.10;;;21.20;99.90;;;;;;6097434;23;20488;-95
2023/09/11 06:20:21;;;;;;;25.80;19.60;;;21.80;99.90;;;;;;6066236;23;20767;-94
2023/09/11 06:22:47;;;;;;;23.00;19.60;;;21.20;99.90;;;;;;6072541;23;20379;-94
2023/09/11 06:25:13;;;;;;;23.03;19.20;;;21.60;99.90;;;;;;6069873;23;20972;-94
2023/09/11 06:27:39;;;;;;;25.10;20.63;;;21.30;99.90;;;;;;6071551;23;20465;-95
2023/09/11 06:30:05;;;;;;;21.52;19.25;;;21.50;99.90;;;;;;6071776;23;20451;-94
2023/09/11 06:32:38;;;;;;;24.05;19.13;;;21.50;99.90;;;;;;6070044;23;20688;-96
2023/09/11 06:35:07;;;;;;;26.67;19.07;;;21.60;99.90;;;;;;6071602;23;20373;-94
2023/09/11 06:37:33;;;;;;;25.05;19.75;;;21.70;99.90;;;;;;6069296;23;20778;-94
2023/09/11 06:39:58;;;;;;;24.67;20.13;;;21.50;99.90;;;;;;6072088;23;20516;-95
2023/09/11 06:42:25;;;;;;;21.85;19.42;;;21.90;99.90;;;;;;6071268;23;20381;-94
2023/09/11 06:44:51;;;;;;;23.87;19.67;;;21.90;99.90;;;;;;6070994;23;20408;-95
2023/09/11 06:47:18;;;;;;;25.08;20.67;;;21.90;99.90;;;;;;6094931;23;20950;-95
2023/09/11 06:49:44;;;;;;;22.87;19.67;;;22.00;99.90;;;;;;6069503;23;20375;-95
2023/09/11 06:52:09;;;;;;;25.80;20.60;;;22.40;99.90;;;;;;6071365;23;20381;-95
2023/09/11 06:54:35;;;;;;;24.93;19.40;;;22.20;99.90;;;;;;6068250;23;20381;-94
2023/09/11 06:57:01;;;;;;;27.33;20.23;;;22.40;99.90;;;;;;6071550;23;20502;-95
2023/09/11 06:59:27;;;;;;;23.20;18.77;;;22.50;99.90;;;;;;6068358;23;21002;-95
2023/09/11 07:01:52;;;;;;;24.17;19.23;;;22.70;99.90;;;;;;6071117;23;20389;-95
2023/09/11 07:04:18;;;;;;;21.30;18.67;;;22.90;99.90;;;;;;6070453;23;20377;-94
2023/09/11 07:06:44;;;;;;;22.33;18.38;;;23.10;99.90;;;;;;6070843;23;20387;-94
2023/09/11 07:09:13;;;;;;;23.33;18.90;;;23.20;99.90;;;;;;6071012;23;20408;-93
2023/09/11 07:11:39;;;;;;;23.67;18.48;;;23.30;99.90;;;;;;6068570;23;20373;-94
2023/09/11 07:14:06;;;;;;;23.47;18.97;;;23.40;99.90;;;;;;6070306;23;20397;-94
2023/09/11 07:16:34;;;;;;;23.55;18.90;;;23.40;99.90;;;;;;6070703;23;20408;-95
2023/09/11 07:19:00;;;;;;;24.25;18.13;;;23.40;99.90;;;;;;6047257;23;20439;-95
2023/09/11 07:21:26;;;;;;;22.80;17.37;;;23.50;99.90;;;;;;6070337;23;20380;-95
2023/09/11 07:23:51;;;;;;;26.48;18.52;;;23.60;99.90;;;;;;6072340;23;20372;-95
2023/09/11 07:26:17;;;;;;;22.92;17.95;;;23.60;99.90;;;;;;6071200;23;20380;-95
2023/09/11 07:29:12;;;;;;;21.67;18.60;;;23.70;99.90;;;;;;6070365;23;20849;-95
2023/09/11 07:31:38;;;;;;;19.35;16.67;;;23.70;99.90;;;;;;6071149;23;20380;-94
2023/09/11 07:34:04;;;;;;;19.73;17.45;;;23.70;99.90;;;;;;6068811;23;20380;-94
2023/09/11 07:36:29;;;;;;;19.57;17.10;;;23.70;99.90;;;;;;6071642;23;20392;-94
2023/09/11 07:38:55;;;;;;;20.83;17.25;;;23.80;99.90;;;;;;6069110;23;20433;-95
2023/09/11 07:41:22;;;;;;;24.93;17.30;;;23.90;99.90;;;;;;6072878;23;21001;-94
2023/09/11 07:43:51;;;;;;;18.60;16.33;;;24.00;99.90;;;;;;6071467;23;20373;-95
2023/09/11 07:46:22;;;;;;;20.53;17.03;;;24.20;99.90;;;;;;6070288;23;20377;-94
2023/09/11 07:48:49;;;;;;;18.20;16.20;;;24.30;99.90;;;;;;6070504;23;20373;-95
2023/09/11 07:51:14;;;;;;;18.73;16.50;;;24.40;99.90;;;;;;6068398;23;20369;-94
2023/09/11 07:53:41;;;;;;;18.17;15.70;;;24.50;99.90;;;;;;6071490;23;20373;-94
2023/09/11 07:56:07;;;;;;;20.13;17.00;;;24.40;99.90;;;;;;6068791;23;20665;-94
2023/09/11 07:58:37;;;;;;;22.65;16.38;;;24.70;99.90;;;;;;6071711;23;20384;-95
2023/09/11 08:01:03;;;;;;;19.20;15.45;;;24.80;99.90;;;;;;6070563;23;20501;-94
2023/09/11 08:03:31;;;;;;;18.30;14.40;;;24.90;99.90;;;;;;6070067;23;20373;-94
2023/09/11 08:05:56;;;;;;;19.40;14.80;;;25.00;99.90;;;;;;6071373;23;20368;-95
2023/09/11 08:08:22;;;;;;;16.57;14.83;;;25.10;99.90;;;;;;6068938;23;20369;-95
2023/09/11 08:10:48;;;;;;;18.42;14.50;;;25.50;99.90;;;;;;6071224;23;20991;-94
2023/09/11 08:13:14;;;;;;;19.05;14.07;;;25.20;99.90;;;;;;6068401;23;20390;-94
2023/09/11 08:15:40;;;;;;;17.83;13.68;;;25.30;99.90;;;;;;6071244;23;20468;-94
2023/09/11 08:18:05;;;;;;;17.07;13.23;;;25.40;99.90;;;;;;6069380;23;20462;-94
2023/09/11 08:20:31;;;;;;;24.13;12.93;;;25.50;99.90;;;;;;6071054;23;20432;-95
2023/09/11 08:22:58;;;;;;;15.70;12.10;;;25.60;99.90;;;;;;6071061;23;20973;-94
2023/09/11 08:25:24;;;;;;;15.95;12.45;;;25.60;99.90;;;;;;6069668;23;20408;-94
2023/09/11 08:27:50;;;;;;;16.23;12.52;;;25.80;99.90;;;;;;6075436;23;20369;-92
2023/09/11 08:30:21;;;;;;;16.17;13.60;;;25.80;99.90;;;;;;6076938;23;20408;-93
2023/09/11 08:32:47;;;;;;;19.45;13.90;;;25.90;99.90;;;;;;6076834;23;20714;-93
2023/09/11 08:35:13;;;;;;;18.80;14.57;;;25.70;99.90;;;;;;6094054;23;20381;-91
2023/09/11 08:37:42;;;;;;;18.52;14.23;;;25.90;99.90;;;;;;6065759;23;20403;-93
2023/09/11 08:40:08;;;;;;;20.35;16.70;;;25.90;99.90;;;;;;6070989;23;20381;-93
2023/09/11 08:42:34;;;;;;;19.80;16.02;;;25.90;99.90;;;;;;6092039;23;20384;-94
2023/09/11 08:45:03;;;;;;;20.50;16.48;;;25.90;97.70;;;;;;6096224;23;20360;-95
2023/09/11 08:47:30;;;;;;;22.48;17.05;;;26.00;99.90;;;;;;6071734;23;20380;-93
2023/09/11 08:50:02;;;;;;;17.80;15.73;;;26.00;97.50;;;;;;6072016;23;20373;-91
2023/09/11 08:52:29;;;;;;;18.30;16.27;;;26.00;99.90;;;;;;6068510;23;20376;-94
2023/09/11 08:55:00;;;;;;;20.20;15.82;;;26.10;99.90;;;;;;6072492;23;20383;-93
2023/09/11 08:57:27;;;;;;;18.08;16.13;;;26.00;99.90;;;;;;6069819;23;20447;-93
2023/09/11 08:59:59;;;;;;;19.52;17.02;;;26.30;99.30;;;;;;6071515;23;20376;-92
2023/09/11 09:02:27;;;;;;;21.05;17.90;;;26.30;97.30;;;;;;6070858;23;20381;-92
2023/09/11 09:04:54;;;;;;;21.65;18.25;;;26.30;97.90;;;;;;6069585;23;20412;-93
2023/09/11 09:07:21;;;;;;;19.70;17.65;;;26.40;99.90;;;;;;6071747;23;20377;-93
2023/09/11 09:09:47;;;;;;;22.10;18.88;;;26.40;99.90;;;;;;6069461;23;20369;-94
2023/09/11 09:12:13;;;;;;;21.45;19.15;;;26.40;99.90;;;;;;6071298;23;20385;-94
2023/09/11 09:14:39;;;;;;;20.60;18.40;;;26.70;97.80;;;;;;6068455;23;20377;-94
2023/09/11 09:17:06;;;;;;;21.33;18.88;;;26.60;99.90;;;;;;6071032;23;20408;-93
2023/09/11 09:19:33;;;;;;;21.10;18.92;;;26.60;99.90;;;;;;6094457;23;20404;-93
2023/09/11 09:22:05;;;;;;;20.92;18.70;;;26.60;97.80;;;;;;6069485;23;20439;-95
2023/09/11 09:24:31;;;;;;;22.58;20.30;;;26.60;99.90;;;;;;6071452;23;20387;-94
2023/09/11 09:27:00;;;;;;;22.92;20.48;;;26.70;99.90;;;;;;6093909;23;20856;-94
2023/09/11 09:29:26;;;;;;;21.90;19.65;;;26.90;99.20;;;;;;6073039;23;20411;-93
2023/09/11 09:31:52;;;;;;;20.83;18.73;;;26.90;99.90;;;;;;6092590;23;20710;-94
2023/09/11 09:34:18;;;;;;;21.25;19.10;;;27.00;99.90;;;;;;6070551;23;20448;-95
2023/09/11 09:36:52;;;;;;;21.38;19.08;;;27.10;99.90;;;;;;6069376;23;20400;-94
2023/09/11 09:39:18;;;;;;;21.83;19.63;;;27.20;99.90;;;;;;6072938;23;20377;-93
2023/09/11 09:41:59;;;;;;;20.07;18.00;;;27.30;97.70;;;;;;6072102;23;20372;-95
2023/09/11 09:44:36;;;;;;;19.80;17.70;;;27.40;95.90;;;;;;6071220;23;20375;-94
2023/09/11 09:47:21;;;;;;;20.40;17.23;;;27.40;98.40;;;;;;6075340;23;20463;-93
2023/09/11 09:49:53;;;;;;;17.77;16.05;;;27.50;99.90;;;;;;6072090;23;20383;-92
2023/09/11 09:52:26;;;;;;;20.35;18.45;;;27.60;96.30;;;;;;6073868;23;20377;-92
2023/09/11 09:54:59;;;;;;;19.55;17.65;;;27.80;93.90;;;;;;6073734;23;20373;-93
2023/09/11 09:57:26;;;;;;;20.92;18.95;;;27.90;94.00;;;;;;6069598;23;20483;-93
2023/09/11 09:59:58;;;;;;;21.08;18.35;;;27.90;94.50;;;;;;6073643;23;20373;-94
2023/09/11 10:02:28;;;;;;;21.70;19.60;;;28.10;98.20;;;;;;6071338;23;20385;-93
2023/09/11 10:04:55;;;;;;;21.63;19.40;;;28.70;92.80;;;;;;6072777;23;20381;-93
2023/09/11 10:07:44;;;;;;;19.30;17.30;;;29.20;89.50;;;;;;6094504;23;20369;-92
2023/09/11 10:10:24;;;;;;;21.98;19.70;;;29.80;78.60;;;;;;6070473;23;20388;-92
2023/09/11 10:13:10;;;;;;;20.65;18.65;;;30.40;72.80;;;;;;6071978;23;20380;-92
2023/09/11 10:15:38;;;;;;;20.60;18.47;;;31.00;74.20;;;;;;6069312;23;20388;-92
2023/09/11 10:18:05;;;;;;;20.52;18.63;;;31.40;64.60;;;;;;6071920;23;20404;-94
2023/09/11 10:20:31;;;;;;;21.13;19.15;;;31.80;65.80;;;;;;6071532;23;20475;-94
2023/09/11 10:23:03;;;;;;;20.73;18.85;;;32.00;61.80;;;;;;6070770;23;20384;-93
2023/09/11 10:25:32;;;;;;;20.45;18.40;;;32.30;62.40;;;;;;6072231;23;20373;-95
2023/09/11 10:28:08;;;;;;;21.87;19.83;;;32.50;61.10;;;;;;6070399;23;20432;-92
2023/09/11 10:30:55;;;;;;;21.30;19.20;;;32.70;59.70;;;;;;6072877;23;20762;-93
2023/09/11 10:33:25;;;;;;;21.35;19.33;;;32.90;59.70;;;;;;6071042;23;20699;-92
2023/09/11 10:36:06;;;;;;;19.73;18.02;;;33.00;61.00;;;;;;6071548;23;20392;-95
2023/09/11 10:38:33;;;;;;;18.52;16.83;;;33.10;59.20;;;;;;6096716;23;20425;-92
2023/09/11 10:41:01;;;;;;;16.40;14.90;;;33.30;59.30;;;;;;6069496;23;20404;-92
2023/09/11 10:43:29;;;;;;;18.77;16.90;;;33.30;58.40;;;;;;6072776;23;20376;-92
2023/09/11 10:45:55;;;;;;;15.40;13.88;;;33.40;54.70;;;;;;6095805;23;20769;-94
2023/09/11 10:48:31;;;;;;;16.92;15.23;;;33.60;57.70;;;;;;6072078;23;20428;-93
2023/09/11 10:50:58;;;;;;;13.93;12.38;;;33.70;53.00;;;;;;6069174;23;20436;-92
2023/09/11 10:53:27;;;;;;;12.30;11.10;;;33.80;53.80;;;;;;6094351;23;20459;-93
2023/09/11 10:55:54;;;;;;;15.07;13.67;;;34.00;53.70;;;;;;6072176;23;20415;-92
2023/09/11 10:58:22;;;;;;;14.77;12.63;;;34.30;55.80;;;;;;6092801;23;20405;-93
2023/09/11 11:00:55;;;;;;;14.32;12.93;;;34.50;51.30;;;;;;6071691;23;20372;-95
2023/09/11 11:03:24;;;;;;;12.43;11.13;;;34.40;49.40;;;;;;6069674;23;20430;-93
2023/09/11 11:05:51;;;;;;;11.68;9.63;;;34.40;53.40;;;;;;6095413;23;20447;-92
2023/09/11 11:08:17;;;;;;;11.82;10.00;;;34.40;53.50;;;;;;6070509;23;20372;-92
2023/09/11 11:10:51;;;;;;;11.02;8.88;;;34.60;51.40;;;;;;6094828;23;20391;-94
2023/09/11 11:13:17;;;;;;;10.70;9.60;;;34.80;51.50;;;;;;6096406;23;20455;-93
2023/09/11 11:15:43;;;;;;;12.57;10.60;;;35.00;52.00;;;;;;6069355;23;20403;-94
2023/09/11 11:18:26;;;;;;;10.77;8.73;;;35.20;48.70;;;;;;6073123;23;20397;-93
2023/09/11 11:21:05;;;;;;;11.35;9.23;;;35.30;52.30;;;;;;6069384;23;20380;-92
2023/09/11 11:23:50;;;;;;;10.10;8.75;;;35.60;49.50;;;;;;6071085;23;20385;-93
2023/09/11 11:26:16;;;;;;;8.90;6.53;;;35.70;49.30;;;;;;6094924;23;20762;-92
2023/09/11 11:28:44;;;;;;;10.23;6.40;;;35.60;47.80;;;;;;6069470;23;20412;-93
2023/09/11 11:31:12;;;;;;;6.78;5.50;;;35.40;47.20;;;;;;6071138;23;20373;-93
2023/09/11 11:33:40;;;;;;;6.93;5.57;;;35.10;50.20;;;;;;6068885;23;20375;-91
2023/09/11 11:36:11;;;;;;;8.32;5.88;;;35.10;47.30;;;;;;6071226;23;20897;-93
2023/09/11 11:38:38;;;;;;;7.35;5.57;;;35.00;45.20;;;;;;6071209;23;20889;-93
2023/09/11 11:41:07;;;;;;;7.03;4.35;;;34.80;47.10;;;;;;6071196;23;20381;-93
2023/09/11 11:43:33;;;;;;;6.53;5.65;;;34.80;51.00;;;;;;6071760;23;20391;-91
2023/09/11 11:45:58;;;;;;;6.32;4.57;;;34.90;49.50;;;;;;6069081;23;20373;-94
2023/09/11 11:48:50;;;;;;;7.78;4.50;;;34.90;50.60;;;;;;6107564;23;20384;-95
2023/09/11 11:51:55;;;;;;;;;;;;;;;;;;;;;
2023/09/11 11:57:12;;;;;;;5.55;3.20;;;35.30;45.80;;;;;;6078152;23;20396;-92
2023/09/11 11:59:39;;;;;;;5.50;3.23;;;35.20;45.10;;;;;;6035260;23;20754;-93
2023/09/11 12:02:17;;;;;;;4.95;3.00;;;35.30;45.50;;;;;;6037112;23;20865;-94
2023/09/11 12:04:43;;;;;;;4.75;2.67;;;35.40;46.30;;;;;;6037326;23;20376;-93
2023/09/11 12:07:09;;;;;;;4.47;3.20;;;35.60;47.10;;;;;;6035977;23;20424;-90
2023/09/11 12:09:38;;;;;;;4.40;2.90;;;35.90;44.50;;;;;;6061113;23;20399;-91
2023/09/11 12:12:06;;;;;;;6.63;3.60;;;36.00;44.80;;;;;;6034605;23;20384;-92
2023/09/11 12:14:32;;;;;;;5.05;3.40;;;35.90;44.00;;;;;;6037339;23;20520;-93
2023/09/11 12:16:58;;;;;;;5.90;3.80;;;35.80;46.00;;;;;;6035081;23;20435;-92
2023/09/11 12:19:23;;;;;;;8.23;4.00;;;35.70;44.80;;;;;;6036983;23;20388;-91
2023/09/11 12:21:54;;;;;;;5.78;4.00;;;35.50;44.40;;;;;;6035563;23;20856;-93
2023/09/11 12:24:20;;;;;;;7.50;4.70;;;35.30;44.90;;;;;;6035385;23;20696;-91
2023/09/11 12:26:46;;;;;;;6.85;4.95;;;35.30;45.70;;;;;;6060967;23;20387;-90
2023/09/11 12:29:11;;;;;;;6.57;4.90;;;35.20;47.60;;;;;;6057965;23;20467;-91
2023/09/11 12:31:37;;;;;;;7.07;5.03;;;35.10;46.40;;;;;;6036684;23;20442;-92
2023/09/11 12:34:03;;;;;;;5.97;4.55;;;34.90;47.90;;;;;;6034388;23;20375;-90
2023/09/11 12:36:30;;;;;;;5.13;3.90;;;34.90;49.70;;;;;;6036434;23;20412;-90